British Ensign — MMER9 — position and weather

sailwx.info

Track history (hours):
 
Tides and Currents Weather Stations Pressure Air Temp Water Temp Dewpoint Dewpoint Depression Visibility Wind Speed Wind Dir Waves Ship Positions

British Ensign

Last reported at 2015-May-30 03:32 UTC. Time now 2015-May-30 04:18 UTC.
Position N 39°40' W 069°28'.

Length 184.2 m; beam 27.4 m; draft 11.3 m.

Type: Ship. MMSI: 235010980.

Date/timePositionNaut miles runAvg speedWind from/ knotsBaromVisibWave heightAir tempDewpointWater temp
2015-May-30 03:32N 39°40' W 069°28'0 0.2
2015-May-30 02:32N 39°39' W 069°29'0 0.2
2015-May-30 01:32N 39°39' W 069°29'0 0.4
2015-May-30 00:30N 39°39' W 069°29'0 0.3
2015-May-29 23:29N 39°39' W 069°30'0 0.3
2015-May-29 22:33N 39°39' W 069°30'0 0.2
2015-May-29 21:33N 39°39' W 069°30'0 0.3
2015-May-29 20:34N 39°39' W 069°30'0 0.4
2015-May-29 19:33N 39°38' W 069°31'0 0.4
2015-May-29 18:32N 39°38' W 069°31'0 0.4
2015-May-29 17:32N 39°38' W 069°31'0 0.4
2015-May-29 16:33N 39°37' W 069°32'0 0.4
2015-May-29 15:33N 39°37' W 069°32'0 0.4
2015-May-29 14:29N 39°37' W 069°32'0 0.4
2015-May-29 13:32N 39°36' W 069°32'0 0.4
2015-May-29 12:32N 39°36' W 069°32'0 0.3
2015-May-29 11:22N 39°35' W 069°32'0 0.3
2015-May-29 10:32N 39°35' W 069°32'1 0.5
2015-May-29 09:33N 39°36' W 069°33'1 0.7
2015-May-29 08:17N 39°36' W 069°34'0 0.7
2015-May-29 07:31N 39°36' W 069°34'1 0.8
2015-May-29 06:20N 39°36' W 069°35'1 0.7
2015-May-29 05:33N 39°36' W 069°36'1 0.6
2015-May-29 04:23N 39°36' W 069°37'1 0.6
2015-May-29 03:31N 39°36' W 069°38'1 0.7
2015-May-29 02:28N 39°36' W 069°38'1 0.8
2015-May-29 01:14N 39°35' W 069°39'1 0.5
2015-May-29 00:07N 39°35' W 069°40'0 0.4
2015-May-28 23:34N 39°35' W 069°40'1 0.5
2015-May-28 22:33N 39°35' W 069°41'1 0.7
2015-May-28 21:26N 39°35' W 069°42'1 1.0
2015-May-28 20:16N 39°35' W 069°43'4 1.3
2015-May-28 17:24N 39°37' W 069°48'1 1.3
2015-May-28 16:27N 39°37' W 069°50'2 1.4
2015-May-28 15:07N 39°37' W 069°52'2 1.4
2015-May-28 13:26N 39°37' W 069°55'1 1.3
2015-May-28 12:30N 39°37' W 069°57'1 1.2
2015-May-28 11:33N 39°37' W 069°58'1 1.2
2015-May-28 10:33N 39°37' W 069°60'1 1.2
2015-May-28 09:33N 39°37' W 070°01'1 1.2
2015-May-28 08:33N 39°37' W 070°03'1 1.4
2015-May-28 07:33N 39°37' W 070°05'2 1.6
2015-May-28 06:33N 39°37' W 070°07'2 1.7
2015-May-28 05:34N 39°37' W 070°09'4 4.0
2015-May-28 04:33N 39°40' W 070°13'9 8.5
2015-May-28 03:33N 39°47' W 070°19'9 8.5
2015-May-28 02:27N 39°55' W 070°25'8 8.4
2015-May-28 01:32N 40°01' W 070°31'9 8.9
2015-May-28 00:33N 40°07' W 070°39'9 8.9
2015-May-27 23:33N 40°13' W 070°48'9 8.7
2015-May-27 22:33N 40°19' W 070°56'10 9.9
2015-May-27 21:33N 40°29' W 071°01'1110.7
2015-May-27 20:33N 40°39' W 071°03'1111.2
2015-May-27 19:33N 40°46' W 071°14'1110.9
2015-May-27 18:34N 40°54' W 071°24'1111.3
2015-May-27 17:34N 41°06' W 071°25'1212.4
2015-May-27 16:33N 41°17' W 071°31'1211.6
2015-May-27 15:33N 41°15' W 071°47'1615.7
2015-May-27 14:33N 41°14' W 072°07'1616.4
2015-May-27 13:34N 41°10' W 072°28'1515.0
2015-May-27 12:33N 41°11' W 072°48'3 3.4
2015-May-27 11:33N 41°12' W 072°53'6 5.5
2015-May-27 10:32N 41°18' W 072°55'0 0.0
2015-May-26 07:22N 41°18' W 072°54'4 4.7
2015-May-26 06:33N 41°14' W 072°55'3 2.6
2015-May-26 05:32N 41°12' W 072°53'0 0.1
2015-May-26 04:32N 41°12' W 072°52'0 0.1
2015-May-26 03:32N 41°12' W 072°53'0 0.0
2015-May-26 02:32N 41°12' W 072°53'0 0.0
2015-May-26 01:32N 41°12' W 072°53'0 0.0
2015-May-26 00:32N 41°12' W 072°53'0 0.0
2015-May-25 23:32N 41°12' W 072°53'0 0.0
2015-May-25 22:32N 41°12' W 072°53'0 0.1
2015-May-25 21:32N 41°12' W 072°53'0 0.0
2015-May-25 20:32N 41°12' W 072°53'0 0.1
2015-May-25 19:32N 41°11' W 072°53'0 0.0
2015-May-25 18:32N 41°11' W 072°53'0 0.0
2015-May-25 17:32N 41°11' W 072°53'0 0.1
2015-May-25 16:32N 41°12' W 072°53'0 0.1
2015-May-25 15:32N 41°12' W 072°53'0 0.0
2015-May-25 14:29N 41°12' W 072°53'0 0.0
2015-May-25 13:32N 41°12' W 072°53'0 0.0
2015-May-25 12:29N 41°12' W 072°53'0 0.0
2015-May-25 11:32N 41°12' W 072°53'0 0.1
2015-May-25 10:32N 41°12' W 072°53'0 0.1
2015-May-25 09:33N 41°11' W 072°53'1111.6
2015-May-25 08:33N 41°09' W 072°38'1514.6
2015-May-25 07:33N 41°11' W 072°19'1514.7
2015-May-25 06:33N 41°14' W 071°59'1514.6
2015-May-25 05:33N 41°16' W 071°40'9 9.5
2015-May-25 04:33N 41°17' W 071°28'4 4.3
2015-May-25 03:34N 41°17' W 071°22'8 8.4
2015-May-25 02:33N 41°09' W 071°21'1110.8
2015-May-25 01:33N 40°58' W 071°21'1110.7
2015-May-25 00:33N 40°47' W 071°17'1312.7
2015-May-24 23:34N 40°35' W 071°12'1211.7
2015-May-24 22:33N 40°32' W 070°57'1312.9
2015-May-24 21:34N 40°32' W 070°40'1312.6
2015-May-24 20:34N 40°33' W 070°24'1312.5
2015-May-24 19:34N 40°33' W 070°07'1212.3
2015-May-24 18:34N 40°33' W 069°51'1111.2
2015-May-24 17:33N 40°23' W 069°43'1111.3
2015-May-24 16:33N 40°16' W 069°32'1111.1
2015-May-24 15:33N 40°14' W 069°18'3 2.9
2015-May-24 14:34N 40°15' W 069°14'1313.0
2015-May-24 13:33N 40°18' W 068°57'1713.3
2015-May-24 12:17N 40°22' W 068°36'1114.5
2015-May-24 11:33N 40°24' W 068°22'1514.7
2015-May-24 10:34N 40°28' W 068°04'58411.8
2015-May-22 09:00N 45°06' W 056°24'   040 / 301018.5 5.4 1.0 6.5 4.2
Track history (hours):
 
Tides and Currents Weather Stations Pressure Air Temp Water Temp Dewpoint Dewpoint Depression Visibility Wind Speed Wind Dir Waves Ship Positions

British Ensign

Last reported at 2015-May-30 03:32 UTC. Time now 2015-May-30 04:18 UTC.
Position N 39°40' W 069°28'.

Length 184.2 m; beam 27.4 m; draft 11.3 m.

Type: Ship. MMSI: 235010980.

Date/timePositionNaut miles runAvg speedWind from/ knotsBaromVisibWave heightAir tempDewpointWater temp
2015-May-30 03:32N 39°40' W 069°28'0 0.2
2015-May-30 02:32N 39°39' W 069°29'0 0.2
2015-May-30 01:32N 39°39' W 069°29'0 0.4
2015-May-30 00:30N 39°39' W 069°29'0 0.3
2015-May-29 23:29N 39°39' W 069°30'0 0.3
2015-May-29 22:33N 39°39' W 069°30'0 0.2
2015-May-29 21:33N 39°39' W 069°30'0 0.3
2015-May-29 20:34N 39°39' W 069°30'0 0.4
2015-May-29 19:33N 39°38' W 069°31'0 0.4
2015-May-29 18:32N 39°38' W 069°31'0 0.4
2015-May-29 17:32N 39°38' W 069°31'0 0.4
2015-May-29 16:33N 39°37' W 069°32'0 0.4
2015-May-29 15:33N 39°37' W 069°32'0 0.4
2015-May-29 14:29N 39°37' W 069°32'0 0.4
2015-May-29 13:32N 39°36' W 069°32'0 0.4
2015-May-29 12:32N 39°36' W 069°32'0 0.3
2015-May-29 11:22N 39°35' W 069°32'0 0.3
2015-May-29 10:32N 39°35' W 069°32'1 0.5
2015-May-29 09:33N 39°36' W 069°33'1 0.7
2015-May-29 08:17N 39°36' W 069°34'0 0.7
2015-May-29 07:31N 39°36' W 069°34'1 0.8
2015-May-29 06:20N 39°36' W 069°35'1 0.7
2015-May-29 05:33N 39°36' W 069°36'1 0.6
2015-May-29 04:23N 39°36' W 069°37'1 0.6
2015-May-29 03:31N 39°36' W 069°38'1 0.7
2015-May-29 02:28N 39°36' W 069°38'1 0.8
2015-May-29 01:14N 39°35' W 069°39'1 0.5
2015-May-29 00:07N 39°35' W 069°40'0 0.4
2015-May-28 23:34N 39°35' W 069°40'1 0.5
2015-May-28 22:33N 39°35' W 069°41'1 0.7
2015-May-28 21:26N 39°35' W 069°42'1 1.0
2015-May-28 20:16N 39°35' W 069°43'4 1.3
2015-May-28 17:24N 39°37' W 069°48'1 1.3
2015-May-28 16:27N 39°37' W 069°50'2 1.4
2015-May-28 15:07N 39°37' W 069°52'2 1.4
2015-May-28 13:26N 39°37' W 069°55'1 1.3
2015-May-28 12:30N 39°37' W 069°57'1 1.2
2015-May-28 11:33N 39°37' W 069°58'1 1.2
2015-May-28 10:33N 39°37' W 069°60'1 1.2
2015-May-28 09:33N 39°37' W 070°01'1 1.2
2015-May-28 08:33N 39°37' W 070°03'1 1.4
2015-May-28 07:33N 39°37' W 070°05'2 1.6
2015-May-28 06:33N 39°37' W 070°07'2 1.7
2015-May-28 05:34N 39°37' W 070°09'4 4.0
2015-May-28 04:33N 39°40' W 070°13'9 8.5
2015-May-28 03:33N 39°47' W 070°19'9 8.5
2015-May-28 02:27N 39°55' W 070°25'8 8.4
2015-May-28 01:32N 40°01' W 070°31'9 8.9
2015-May-28 00:33N 40°07' W 070°39'9 8.9
2015-May-27 23:33N 40°13' W 070°48'9 8.7
2015-May-27 22:33N 40°19' W 070°56'10 9.9
2015-May-27 21:33N 40°29' W 071°01'1110.7
2015-May-27 20:33N 40°39' W 071°03'1111.2
2015-May-27 19:33N 40°46' W 071°14'1110.9
2015-May-27 18:34N 40°54' W 071°24'1111.3
2015-May-27 17:34N 41°06' W 071°25'1212.4
2015-May-27 16:33N 41°17' W 071°31'1211.6
2015-May-27 15:33N 41°15' W 071°47'1615.7
2015-May-27 14:33N 41°14' W 072°07'1616.4
2015-May-27 13:34N 41°10' W 072°28'1515.0
2015-May-27 12:33N 41°11' W 072°48'3 3.4
2015-May-27 11:33N 41°12' W 072°53'6 5.5
2015-May-27 10:32N 41°18' W 072°55'0 0.0
2015-May-26 07:22N 41°18' W 072°54'4 4.7
2015-May-26 06:33N 41°14' W 072°55'3 2.6
2015-May-26 05:32N 41°12' W 072°53'0 0.1
2015-May-26 04:32N 41°12' W 072°52'0 0.1
2015-May-26 03:32N 41°12' W 072°53'0 0.0
2015-May-26 02:32N 41°12' W 072°53'0 0.0
2015-May-26 01:32N 41°12' W 072°53'0 0.0
2015-May-26 00:32N 41°12' W 072°53'0 0.0
2015-May-25 23:32N 41°12' W 072°53'0 0.0
2015-May-25 22:32N 41°12' W 072°53'0 0.1
2015-May-25 21:32N 41°12' W 072°53'0 0.0
2015-May-25 20:32N 41°12' W 072°53'0 0.1
2015-May-25 19:32N 41°11' W 072°53'0 0.0
2015-May-25 18:32N 41°11' W 072°53'0 0.0
2015-May-25 17:32N 41°11' W 072°53'0 0.1
2015-May-25 16:32N 41°12' W 072°53'0 0.1
2015-May-25 15:32N 41°12' W 072°53'0 0.0
2015-May-25 14:29N 41°12' W 072°53'0 0.0
2015-May-25 13:32N 41°12' W 072°53'0 0.0
2015-May-25 12:29N 41°12' W 072°53'0 0.0
2015-May-25 11:32N 41°12' W 072°53'0 0.1
2015-May-25 10:32N 41°12' W 072°53'0 0.1
2015-May-25 09:33N 41°11' W 072°53'1111.6
2015-May-25 08:33N 41°09' W 072°38'1514.6
2015-May-25 07:33N 41°11' W 072°19'1514.7
2015-May-25 06:33N 41°14' W 071°59'1514.6
2015-May-25 05:33N 41°16' W 071°40'9 9.5
2015-May-25 04:33N 41°17' W 071°28'4 4.3
2015-May-25 03:34N 41°17' W 071°22'8 8.4
2015-May-25 02:33N 41°09' W 071°21'1110.8
2015-May-25 01:33N 40°58' W 071°21'1110.7
2015-May-25 00:33N 40°47' W 071°17'1312.7
2015-May-24 23:34N 40°35' W 071°12'1211.7
2015-May-24 22:33N 40°32' W 070°57'1312.9
2015-May-24 21:34N 40°32' W 070°40'1312.6
2015-May-24 20:34N 40°33' W 070°24'1312.5
2015-May-24 19:34N 40°33' W 070°07'1212.3
2015-May-24 18:34N 40°33' W 069°51'1111.2
2015-May-24 17:33N 40°23' W 069°43'1111.3
2015-May-24 16:33N 40°16' W 069°32'1111.1
2015-May-24 15:33N 40°14' W 069°18'3 2.9
2015-May-24 14:34N 40°15' W 069°14'1313.0
2015-May-24 13:33N 40°18' W 068°57'1713.3
2015-May-24 12:17N 40°22' W 068°36'1114.5
2015-May-24 11:33N 40°24' W 068°22'1514.7
2015-May-24 10:34N 40°28' W 068°04'58411.8
2015-May-22 09:00N 45°06' W 056°24'   040 / 301018.5 5.4 1.0 6.5 4.2

Dump ship's entire track history